sensor_id;sensor_type;location;lat;lon;timestamp;pressure;altitude;pressure_sealevel;temperature;humidity
66021;BME280;52789;59.980;30.346;2022-12-19T00:00:07;101624.38;;;-1.10;100.00
66021;BME280;52789;59.980;30.346;2022-12-19T00:02:33;101608.94;;;-1.16;100.00
66021;BME280;52789;59.980;30.346;2022-12-19T00:04:58;101621.56;;;-1.05;100.00
66021;BME280;52789;59.980;30.346;2022-12-19T00:07:24;101623.97;;;-1.01;100.00
66021;BME280;52789;59.980;30.346;2022-12-19T00:09:49;101614.22;;;-0.97;100.00
66021;BME280;52789;59.980;30.346;2022-12-19T00:12:15;101607.28;;;-0.98;100.00
66021;BME280;52789;59.980;30.346;2022-12-19T00:14:41;101609.56;;;-0.90;100.00
66021;BME280;52789;59.980;30.346;2022-12-19T00:17:06;101598.09;;;-0.88;100.00
66021;BME280;52789;59.980;30.346;2022-12-19T00:19:32;101597.13;;;-0.85;100.00
66021;BME280;52789;59.980;30.346;2022-12-19T00:21:57;101592.69;;;-0.83;100.00
66021;BME280;52789;59.980;30.346;2022-12-19T00:24:25;101592.53;;;-0.80;100.00
66021;BME280;52789;59.980;30.346;2022-12-19T00:26:50;101587.38;;;-0.82;100.00
66021;BME280;52789;59.980;30.346;2022-12-19T00:29:16;101586.47;;;-0.81;100.00
66021;BME280;52789;59.980;30.346;2022-12-19T00:31:41;101589.66;;;-0.74;100.00
66021;BME280;52789;59.980;30.346;2022-12-19T00:34:08;101602.56;;;-0.71;100.00
66021;BME280;52789;59.980;30.346;2022-12-19T00:36:33;101604.28;;;-0.70;100.00
66021;BME280;52789;59.980;30.346;2022-12-19T00:39:00;101598.13;;;-0.69;100.00
66021;BME280;52789;59.980;30.346;2022-12-19T00:41:31;101599.53;;;-0.62;100.00
66021;BME280;52789;59.980;30.346;2022-12-19T00:43:59;101595.16;;;-0.62;100.00
66021;BME280;52789;59.980;30.346;2022-12-19T00:46:26;101597.91;;;-0.65;100.00
66021;BME280;52789;59.980;30.346;2022-12-19T00:48:54;101593.59;;;-0.66;100.00
66021;BME280;52789;59.980;30.346;2022-12-19T00:51:25;101589.34;;;-0.68;100.00
66021;BME280;52789;59.980;30.346;2022-12-19T00:53:53;101587.53;;;-0.66;100.00
66021;BME280;52789;59.980;30.346;2022-12-19T00:56:22;101582.28;;;-0.66;100.00
66021;BME280;52789;59.980;30.346;2022-12-19T00:58:49;101589.72;;;-0.57;100.00
66021;BME280;52789;59.980;30.346;2022-12-19T01:01:17;101581.16;;;-0.60;100.00
66021;BME280;52789;59.980;30.346;2022-12-19T01:03:43;101592.19;;;-0.54;100.00
66021;BME280;52789;59.980;30.346;2022-12-19T01:06:09;101576.50;;;-0.54;100.00
66021;BME280;52789;59.980;30.346;2022-12-19T01:08:35;101562.56;;;-0.54;100.00
66021;BME280;52789;59.980;30.346;2022-12-19T01:11:01;101570.41;;;-0.54;100.00
66021;BME280;52789;59.980;30.346;2022-12-19T01:13:29;101571.19;;;-0.52;100.00
66021;BME280;52789;59.980;30.346;2022-12-19T01:15:55;101567.72;;;-0.53;100.00
66021;BME280;52789;59.980;30.346;2022-12-19T01:18:21;101549.56;;;-0.56;100.00
66021;BME280;52789;59.980;30.346;2022-12-19T01:20:46;101567.59;;;-0.50;100.00
66021;BME280;52789;59.980;30.346;2022-12-19T01:23:15;101513.88;;;-0.76;100.00
66021;BME280;52789;59.980;30.346;2022-12-19T01:25:41;101552.72;;;-0.49;100.00
66021;BME280;52789;59.980;30.346;2022-12-19T01:28:11;101563.59;;;-0.40;100.00
66021;BME280;52789;59.980;30.346;2022-12-19T01:30:38;101547.50;;;-0.49;100.00
66021;BME280;52789;59.980;30.346;2022-12-19T01:33:04;101566.63;;;-0.30;100.00
66021;BME280;52789;59.980;30.346;2022-12-19T01:35:29;101557.78;;;-0.27;100.00
66021;BME280;52789;59.980;30.346;2022-12-19T01:37:55;101556.72;;;-0.23;100.00
66021;BME280;52789;59.980;30.346;2022-12-19T01:40:21;101552.41;;;-0.24;100.00
66021;BME280;52789;59.980;30.346;2022-12-19T01:42:47;101540.66;;;-0.35;100.00
66021;BME280;52789;59.980;30.346;2022-12-19T01:48:16;101579.97;;;-0.17;100.00
66021;BME280;52789;59.980;30.346;2022-12-19T01:51:03;101578.91;;;-0.13;100.00
66021;BME280;52789;59.980;30.346;2022-12-19T01:53:33;101570.91;;;-0.10;100.00
66021;BME280;52789;59.980;30.346;2022-12-19T01:56:03;101522.72;;;-0.42;100.00
66021;BME280;52789;59.980;30.346;2022-12-19T01:58:29;101564.81;;;-0.11;100.00
66021;BME280;52789;59.980;30.346;2022-12-19T02:00:55;101575.84;;;-0.04;100.00
66021;BME280;52789;59.980;30.346;2022-12-19T02:03:28;101579.09;;;0.01;100.00
66021;BME280;52789;59.980;30.346;2022-12-19T02:05:57;101573.72;;;0.04;100.00
66021;BME280;52789;59.980;30.346;2022-12-19T02:08:23;101591.03;;;0.07;100.00
66021;BME280;52789;59.980;30.346;2022-12-19T02:10:50;101588.44;;;0.07;100.00
66021;BME280;52789;59.980;30.346;2022-12-19T02:13:16;101597.91;;;0.09;100.00
66021;BME280;52789;59.980;30.346;2022-12-19T02:21:24;101590.81;;;0.11;100.00
66021;BME280;52789;59.980;30.346;2022-12-19T02:24:15;101615.00;;;0.16;100.00
66021;BME280;52789;59.980;30.346;2022-12-19T02:41:14;101623.03;;;0.30;100.00
66021;BME280;52789;59.980;30.346;2022-12-19T02:43:48;101607.75;;;0.21;100.00
66021;BME280;52789;59.980;30.346;2022-12-19T02:46:18;101621.09;;;0.17;100.00
66021;BME280;52789;59.980;30.346;2022-12-19T02:51:45;101624.09;;;0.26;99.01
66021;BME280;52789;59.980;30.346;2022-12-19T02:54:11;101612.84;;;0.24;98.86
66021;BME280;52789;59.980;30.346;2022-12-19T03:07:49;101642.75;;;0.20;99.48
66021;BME280;52789;59.980;30.346;2022-12-19T03:10:39;101663.13;;;0.33;99.67
66021;BME280;52789;59.980;30.346;2022-12-19T03:13:29;101656.59;;;0.22;99.78
66021;BME280;52789;59.980;30.346;2022-12-19T03:15:57;101672.03;;;0.28;99.78
66021;BME280;52789;59.980;30.346;2022-12-19T03:18:24;101659.38;;;0.19;99.55
66021;BME280;52789;59.980;30.346;2022-12-19T03:23:28;101675.72;;;0.24;99.34
66021;BME280;52789;59.980;30.346;2022-12-19T03:26:00;101675.72;;;0.24;99.77
66021;BME280;52789;59.980;30.346;2022-12-19T03:28:40;101689.59;;;0.26;99.75
66021;BME280;52789;59.980;30.346;2022-12-19T03:31:08;101682.47;;;0.30;100.00
66021;BME280;52789;59.980;30.346;2022-12-19T03:33:36;101678.41;;;0.23;100.00
66021;BME280;52789;59.980;30.346;2022-12-19T03:36:04;101684.34;;;0.26;100.00
66021;BME280;52789;59.980;30.346;2022-12-19T03:38:33;101653.53;;;0.14;100.00
66021;BME280;52789;59.980;30.346;2022-12-19T03:40:59;101691.44;;;0.24;100.00
66021;BME280;52789;59.980;30.346;2022-12-19T03:43:32;101682.97;;;0.19;99.46
66021;BME280;52789;59.980;30.346;2022-12-19T03:46:24;101650.44;;;0.06;99.33
66021;BME280;52789;59.980;30.346;2022-12-19T03:49:11;101676.47;;;0.09;100.00
66021;BME280;52789;59.980;30.346;2022-12-19T03:51:47;101680.44;;;-0.01;100.00
66021;BME280;52789;59.980;30.346;2022-12-19T03:54:17;101683.28;;;-0.24;100.00
66021;BME280;52789;59.980;30.346;2022-12-19T04:00:16;101689.28;;;-0.41;100.00
66021;BME280;52789;59.980;30.346;2022-12-19T04:10:29;101677.09;;;-0.61;100.00
66021;BME280;52789;59.980;30.346;2022-12-19T04:13:09;101724.81;;;-0.36;100.00
66021;BME280;52789;59.980;30.346;2022-12-19T04:15:50;101723.59;;;-0.47;100.00
66021;BME280;52789;59.980;30.346;2022-12-19T04:18:19;101675.03;;;-0.73;100.00
66021;BME280;52789;59.980;30.346;2022-12-19T04:20:54;101760.66;;;-0.38;100.00
66021;BME280;52789;59.980;30.346;2022-12-19T04:23:30;101736.47;;;-0.43;100.00
66021;BME280;52789;59.980;30.346;2022-12-19T04:26:00;101728.41;;;-0.57;100.00
66021;BME280;52789;59.980;30.346;2022-12-19T04:28:34;101730.09;;;-0.56;100.00
66021;BME280;52789;59.980;30.346;2022-12-19T04:31:03;101751.03;;;-0.56;100.00
66021;BME280;52789;59.980;30.346;2022-12-19T04:33:29;101747.34;;;-0.52;100.00
66021;BME280;52789;59.980;30.346;2022-12-19T04:43:38;101751.75;;;-0.34;100.00
66021;BME280;52789;59.980;30.346;2022-12-19T04:54:38;101755.03;;;-0.28;99.25
66021;BME280;52789;59.980;30.346;2022-12-19T04:57:53;101757.00;;;-0.34;99.77
66021;BME280;52789;59.980;30.346;2022-12-19T05:04:04;101732.16;;;-0.44;99.56
66021;BME280;52789;59.980;30.346;2022-12-19T05:06:30;101751.31;;;-0.43;99.23
66021;BME280;52789;59.980;30.346;2022-12-19T05:08:56;101734.19;;;-0.50;98.66
66021;BME280;52789;59.980;30.346;2022-12-19T05:11:21;101768.00;;;-0.25;98.48
66021;BME280;52789;59.980;30.346;2022-12-19T05:17:38;101744.97;;;-0.38;98.18
66021;BME280;52789;59.980;30.346;2022-12-19T05:23:29;101750.06;;;-0.35;98.67
66021;BME280;52789;59.980;30.346;2022-12-19T05:30:04;101801.47;;;-0.13;98.23
66021;BME280;52789;59.980;30.346;2022-12-19T05:32:30;101760.53;;;-0.35;98.27
66021;BME280;52789;59.980;30.346;2022-12-19T05:34:56;101789.44;;;-0.17;97.36
66021;BME280;52789;59.980;30.346;2022-12-19T05:37:22;101780.41;;;-0.31;97.09
66021;BME280;52789;59.980;30.346;2022-12-19T05:39:47;101808.88;;;-0.23;95.50
66021;BME280;52789;59.980;30.346;2022-12-19T05:42:13;101811.38;;;-0.20;93.56
66021;BME280;52789;59.980;30.346;2022-12-19T05:44:38;101808.81;;;-0.21;92.76
66021;BME280;52789;59.980;30.346;2022-12-19T05:47:06;101795.88;;;-0.24;92.29
66021;BME280;52789;59.980;30.346;2022-12-19T05:49:32;101810.66;;;-0.23;90.85
66021;BME280;52789;59.980;30.346;2022-12-19T05:51:57;101807.69;;;-0.16;90.60
66021;BME280;52789;59.980;30.346;2022-12-19T05:57:13;101833.16;;;-0.19;89.74
66021;BME280;52789;59.980;30.346;2022-12-19T05:59:45;101827.91;;;-0.19;89.50
66021;BME280;52789;59.980;30.346;2022-12-19T06:02:11;101826.78;;;-0.14;89.66
66021;BME280;52789;59.980;30.346;2022-12-19T06:04:36;101785.34;;;-0.43;89.08
66021;BME280;52789;59.980;30.346;2022-12-19T06:07:04;101830.53;;;-0.19;89.80
66021;BME280;52789;59.980;30.346;2022-12-19T06:09:33;101822.97;;;-0.25;89.72
66021;BME280;52789;59.980;30.346;2022-12-19T06:12:21;101822.13;;;-0.26;89.91
66021;BME280;52789;59.980;30.346;2022-12-19T06:14:47;101846.91;;;-0.14;90.56
66021;BME280;52789;59.980;30.346;2022-12-19T06:17:18;101849.38;;;-0.11;90.92
66021;BME280;52789;59.980;30.346;2022-12-19T06:19:49;101830.81;;;-0.25;90.79
66021;BME280;52789;59.980;30.346;2022-12-19T06:22:18;101858.94;;;-0.10;91.18
66021;BME280;52789;59.980;30.346;2022-12-19T06:24:52;101844.19;;;-0.13;92.21
66021;BME280;52789;59.980;30.346;2022-12-19T06:27:18;101834.22;;;-0.23;92.89
66021;BME280;52789;59.980;30.346;2022-12-19T06:30:32;101866.72;;;-0.09;93.30
66021;BME280;52789;59.980;30.346;2022-12-19T06:32:57;101867.28;;;-0.02;93.87
66021;BME280;52789;59.980;30.346;2022-12-19T06:35:23;101863.75;;;-0.01;94.26
66021;BME280;52789;59.980;30.346;2022-12-19T06:37:51;101876.91;;;-0.03;93.94
66021;BME280;52789;59.980;30.346;2022-12-19T06:40:45;101871.44;;;0.04;94.11
66021;BME280;52789;59.980;30.346;2022-12-19T06:53:00;101873.84;;;0.08;93.70
66021;BME280;52789;59.980;30.346;2022-12-19T06:56:32;101886.94;;;0.08;94.79
66021;BME280;52789;59.980;30.346;2022-12-19T06:58:53;101894.94;;;0.05;95.85
66021;BME280;52789;59.980;30.346;2022-12-19T07:04:23;101875.03;;;-0.19;99.43
66021;BME280;52789;59.980;30.346;2022-12-19T07:06:56;101876.63;;;-0.15;100.00
66021;BME280;52789;59.980;30.346;2022-12-19T07:09:42;101897.56;;;-0.15;100.00
66021;BME280;52789;59.980;30.346;2022-12-19T07:19:30;101915.25;;;-0.20;100.00
66021;BME280;52789;59.980;30.346;2022-12-19T07:22:35;101915.59;;;-0.29;100.00
66021;BME280;52789;59.980;30.346;2022-12-19T07:25:35;101918.13;;;-0.26;100.00
66021;BME280;52789;59.980;30.346;2022-12-19T07:28:20;101887.09;;;-0.56;100.00
66021;BME280;52789;59.980;30.346;2022-12-19T07:30:55;101892.47;;;-0.60;100.00
66021;BME280;52789;59.980;30.346;2022-12-19T07:33:57;101942.75;;;-0.32;100.00
66021;BME280;52789;59.980;30.346;2022-12-19T07:36:23;101861.47;;;-0.70;98.04
66021;BME280;52789;59.980;30.346;2022-12-19T07:38:49;101891.09;;;-0.69;97.53
66021;BME280;52789;59.980;30.346;2022-12-19T07:41:15;101948.63;;;-0.25;96.58
66021;BME280;52789;59.980;30.346;2022-12-19T07:43:40;101936.56;;;-0.29;96.37
66021;BME280;52789;59.980;30.346;2022-12-19T07:46:06;101960.78;;;-0.24;95.10
66021;BME280;52789;59.980;30.346;2022-12-19T07:48:31;101955.56;;;-0.24;94.86
66021;BME280;52789;59.980;30.346;2022-12-19T07:50:57;101961.66;;;-0.24;94.80
66021;BME280;52789;59.980;30.346;2022-12-19T07:53:23;101962.72;;;-0.29;93.62
66021;BME280;52789;59.980;30.346;2022-12-19T07:55:52;101967.06;;;-0.28;94.34
66021;BME280;52789;59.980;30.346;2022-12-19T07:58:17;101976.50;;;-0.24;93.31
66021;BME280;52789;59.980;30.346;2022-12-19T08:00:43;101975.72;;;-0.26;92.94
66021;BME280;52789;59.980;30.346;2022-12-19T08:03:09;101980.16;;;-0.28;92.24
66021;BME280;52789;59.980;30.346;2022-12-19T08:05:35;101974.03;;;-0.29;91.41
66021;BME280;52789;59.980;30.346;2022-12-19T08:08:01;101978.50;;;-0.31;91.90
66021;BME280;52789;59.980;30.346;2022-12-19T08:10:27;101974.56;;;-0.41;91.07
66021;BME280;52789;59.980;30.346;2022-12-19T08:12:52;101979.94;;;-0.44;90.34
66021;BME280;52789;59.980;30.346;2022-12-19T08:15:18;101974.81;;;-0.47;90.63
66021;BME280;52789;59.980;30.346;2022-12-19T08:17:44;101974.34;;;-0.57;90.28
66021;BME280;52789;59.980;30.346;2022-12-19T08:20:10;101987.84;;;-0.46;90.87
66021;BME280;52789;59.980;30.346;2022-12-19T08:22:36;101990.91;;;-0.56;90.56
66021;BME280;52789;59.980;30.346;2022-12-19T08:25:02;101993.69;;;-0.61;91.10
66021;BME280;52789;59.980;30.346;2022-12-19T08:27:28;101996.66;;;-0.70;91.72
66021;BME280;52789;59.980;30.346;2022-12-19T08:29:54;101999.41;;;-0.73;92.06
66021;BME280;52789;59.980;30.346;2022-12-19T08:32:19;102000.50;;;-0.79;92.30
66021;BME280;52789;59.980;30.346;2022-12-19T08:34:45;101999.91;;;-0.85;92.13
66021;BME280;52789;59.980;30.346;2022-12-19T08:37:10;102020.69;;;-0.82;92.00
66021;BME280;52789;59.980;30.346;2022-12-19T08:39:39;102018.28;;;-0.88;92.61
66021;BME280;52789;59.980;30.346;2022-12-19T08:42:07;102035.66;;;-0.86;92.83
66021;BME280;52789;59.980;30.346;2022-12-19T08:44:59;102039.97;;;-0.85;93.08
66021;BME280;52789;59.980;30.346;2022-12-19T08:47:43;102031.53;;;-0.93;92.40
66021;BME280;52789;59.980;30.346;2022-12-19T08:50:11;102023.31;;;-1.06;92.38
66021;BME280;52789;59.980;30.346;2022-12-19T08:52:41;102056.78;;;-0.92;92.16
66021;BME280;52789;59.980;30.346;2022-12-19T08:55:06;102064.69;;;-0.94;92.41
66021;BME280;52789;59.980;30.346;2022-12-19T08:57:32;102045.72;;;-0.99;93.17
66021;BME280;52789;59.980;30.346;2022-12-19T09:02:53;102078.78;;;-0.98;93.38
66021;BME280;52789;59.980;30.346;2022-12-19T09:05:19;102080.78;;;-0.81;92.93
66021;BME280;52789;59.980;30.346;2022-12-19T09:07:44;102078.69;;;-0.71;92.53
66021;BME280;52789;59.980;30.346;2022-12-19T09:10:10;102081.28;;;-0.71;92.12
66021;BME280;52789;59.980;30.346;2022-12-19T09:12:36;102080.63;;;-0.76;92.87
66021;BME280;52789;59.980;30.346;2022-12-19T09:15:01;102092.13;;;-0.80;92.63
66021;BME280;52789;59.980;30.346;2022-12-19T09:17:28;102095.84;;;-0.87;93.72
66021;BME280;52789;59.980;30.346;2022-12-19T09:19:54;102091.75;;;-0.95;94.23
66021;BME280;52789;59.980;30.346;2022-12-19T09:22:19;102047.81;;;-1.32;93.99
66021;BME280;52789;59.980;30.346;2022-12-19T09:24:45;102106.09;;;-1.05;94.58
66021;BME280;52789;59.980;30.346;2022-12-19T09:27:10;102096.75;;;-1.12;94.77
66021;BME280;52789;59.980;30.346;2022-12-19T09:29:36;102095.38;;;-1.22;94.98
66021;BME280;52789;59.980;30.346;2022-12-19T09:32:01;102115.38;;;-1.21;95.55
66021;BME280;52789;59.980;30.346;2022-12-19T09:34:27;102113.81;;;-1.27;95.89
66021;BME280;52789;59.980;30.346;2022-12-19T09:36:53;102126.22;;;-1.32;96.36
66021;BME280;52789;59.980;30.346;2022-12-19T09:39:18;102116.88;;;-1.39;96.24
66021;BME280;52789;59.980;30.346;2022-12-19T09:47:16;102133.31;;;-1.35;96.58
66021;BME280;52789;59.980;30.346;2022-12-19T09:49:44;102136.03;;;-1.38;96.45
66021;BME280;52789;59.980;30.346;2022-12-19T09:52:36;102148.09;;;-1.34;96.49
66021;BME280;52789;59.980;30.346;2022-12-19T09:55:16;102144.56;;;-1.33;96.94
66021;BME280;52789;59.980;30.346;2022-12-19T09:58:13;102144.44;;;-1.30;96.43
66021;BME280;52789;59.980;30.346;2022-12-19T10:00:45;102137.53;;;-1.31;96.89
66021;BME280;52789;59.980;30.346;2022-12-19T10:06:03;102147.66;;;-1.22;96.47
66021;BME280;52789;59.980;30.346;2022-12-19T10:08:33;102143.38;;;-1.25;96.41
66021;BME280;52789;59.980;30.346;2022-12-19T10:18:52;102163.31;;;-1.22;97.14
66021;BME280;52789;59.980;30.346;2022-12-19T10:26:26;102166.75;;;-0.95;96.77
66021;BME280;52789;59.980;30.346;2022-12-19T10:34:23;102170.69;;;-0.83;96.11
66021;BME280;52789;59.980;30.346;2022-12-19T10:36:55;102180.69;;;-0.71;95.49
66021;BME280;52789;59.980;30.346;2022-12-19T10:42:52;102176.69;;;-0.56;95.60
66021;BME280;52789;59.980;30.346;2022-12-19T10:45:21;102180.91;;;-0.52;95.98
66021;BME280;52789;59.980;30.346;2022-12-19T10:47:50;102176.50;;;-0.52;96.05
66021;BME280;52789;59.980;30.346;2022-12-19T10:50:27;102175.31;;;-0.43;95.71
66021;BME280;52789;59.980;30.346;2022-12-19T10:55:50;102185.16;;;-0.26;95.56
66021;BME280;52789;59.980;30.346;2022-12-19T10:58:22;102178.75;;;-0.19;95.25
66021;BME280;52789;59.980;30.346;2022-12-19T11:03:32;102177.91;;;-0.20;95.57
66021;BME280;52789;59.980;30.346;2022-12-19T11:05:59;102175.41;;;-0.23;95.29
66021;BME280;52789;59.980;30.346;2022-12-19T11:08:34;102172.06;;;-0.26;94.61
66021;BME280;52789;59.980;30.346;2022-12-19T11:13:44;102173.97;;;-0.32;95.31
66021;BME280;52789;59.980;30.346;2022-12-19T11:16:11;102185.16;;;-0.26;95.33
66021;BME280;52789;59.980;30.346;2022-12-19T11:18:43;102181.88;;;-0.33;94.84
66021;BME280;52789;59.980;30.346;2022-12-19T11:24:03;102188.63;;;-0.26;95.15
66021;BME280;52789;59.980;30.346;2022-12-19T11:29:03;102195.50;;;-0.23;94.67
66021;BME280;52789;59.980;30.346;2022-12-19T11:31:30;102200.50;;;-0.17;94.68
66021;BME280;52789;59.980;30.346;2022-12-19T11:34:13;102203.91;;;-0.15;94.79
66021;BME280;52789;59.980;30.346;2022-12-19T11:39:32;102201.28;;;-0.15;94.50
66021;BME280;52789;59.980;30.346;2022-12-19T11:45:28;102191.66;;;-0.15;94.23
66021;BME280;52789;59.980;30.346;2022-12-19T11:50:28;102194.34;;;-0.16;93.76
66021;BME280;52789;59.980;30.346;2022-12-19T11:53:23;102183.16;;;-0.20;93.66
66021;BME280;52789;59.980;30.346;2022-12-19T11:55:58;102187.53;;;-0.20;93.48
66021;BME280;52789;59.980;30.346;2022-12-19T11:58:28;102179.22;;;-0.32;93.77
66021;BME280;52789;59.980;30.346;2022-12-19T12:01:22;102199.19;;;-0.29;93.81
66021;BME280;52789;59.980;30.346;2022-12-19T12:06:44;102196.91;;;-0.38;93.86
66021;BME280;52789;59.980;30.346;2022-12-19T12:11:43;102198.19;;;-0.48;94.51
66021;BME280;52789;59.980;30.346;2022-12-19T12:14:21;102195.63;;;-0.50;94.74
66021;BME280;52789;59.980;30.346;2022-12-19T12:19:47;102208.81;;;-0.53;95.06
66021;BME280;52789;59.980;30.346;2022-12-19T12:25:09;102217.91;;;-0.63;95.45
66021;BME280;52789;59.980;30.346;2022-12-19T12:30:13;102224.31;;;-0.72;96.26
66021;BME280;52789;59.980;30.346;2022-12-19T12:35:33;102208.22;;;-0.84;97.37
66021;BME280;52789;59.980;30.346;2022-12-19T12:43:30;102222.50;;;-0.95;99.37
66021;BME280;52789;59.980;30.346;2022-12-19T12:46:03;102228.66;;;-0.96;99.89
66021;BME280;52789;59.980;30.346;2022-12-19T12:51:41;102189.69;;;-1.28;99.87
66021;BME280;52789;59.980;30.346;2022-12-19T12:54:40;102229.31;;;-1.14;100.00
66021;BME280;52789;59.980;30.346;2022-12-19T12:57:32;102232.94;;;-1.19;100.00
66021;BME280;52789;59.980;30.346;2022-12-19T13:00:29;102238.13;;;-1.18;100.00
66021;BME280;52789;59.980;30.346;2022-12-19T13:05:38;102229.53;;;-1.21;100.00
66021;BME280;52789;59.980;30.346;2022-12-19T13:10:56;102223.03;;;-1.35;100.00
66021;BME280;52789;59.980;30.346;2022-12-19T13:13:54;102226.47;;;-1.34;100.00
66021;BME280;52789;59.980;30.346;2022-12-19T13:19:16;102218.97;;;-1.43;100.00
66021;BME280;52789;59.980;30.346;2022-12-19T13:29:53;102231.25;;;-1.47;100.00
66021;BME280;52789;59.980;30.346;2022-12-19T13:32:21;102242.53;;;-1.46;100.00
66021;BME280;52789;59.980;30.346;2022-12-19T13:34:58;102224.31;;;-1.48;100.00
66021;BME280;52789;59.980;30.346;2022-12-19T13:42:21;102219.88;;;-1.44;100.00
66021;BME280;52789;59.980;30.346;2022-12-19T13:45:20;102221.47;;;-1.40;100.00
66021;BME280;52789;59.980;30.346;2022-12-19T13:47:48;102223.19;;;-1.39;100.00
66021;BME280;52789;59.980;30.346;2022-12-19T13:50:30;102212.81;;;-1.42;100.00
66021;BME280;52789;59.980;30.346;2022-12-19T13:52:57;102211.19;;;-1.46;100.00
66021;BME280;52789;59.980;30.346;2022-12-19T13:55:27;102197.53;;;-1.54;100.00
66021;BME280;52789;59.980;30.346;2022-12-19T13:57:53;102224.88;;;-1.38;100.00
66021;BME280;52789;59.980;30.346;2022-12-19T14:00:22;102221.56;;;-1.43;100.00
66021;BME280;52789;59.980;30.346;2022-12-19T14:02:54;102219.94;;;-1.47;100.00
66021;BME280;52789;59.980;30.346;2022-12-19T14:05:24;102221.75;;;-1.49;100.00
66021;BME280;52789;59.980;30.346;2022-12-19T14:07:51;102164.38;;;-1.79;100.00
66021;BME280;52789;59.980;30.346;2022-12-19T14:10:41;102206.88;;;-1.47;100.00
66021;BME280;52789;59.980;30.346;2022-12-19T14:13:13;102200.94;;;-1.52;100.00
66021;BME280;52789;59.980;30.346;2022-12-19T14:16:25;102207.78;;;-1.48;100.00
66021;BME280;52789;59.980;30.346;2022-12-19T14:18:51;102204.19;;;-1.44;100.00
66021;BME280;52789;59.980;30.346;2022-12-19T14:21:21;102202.84;;;-1.31;100.00
66021;BME280;52789;59.980;30.346;2022-12-19T14:23:47;102196.72;;;-1.30;100.00
66021;BME280;52789;59.980;30.346;2022-12-19T14:26:29;102200.63;;;-1.17;100.00
66021;BME280;52789;59.980;30.346;2022-12-19T14:29:21;102200.31;;;-1.08;100.00
66021;BME280;52789;59.980;30.346;2022-12-19T14:31:47;102208.22;;;-1.09;100.00
66021;BME280;52789;59.980;30.346;2022-12-19T14:34:20;102198.78;;;-1.13;100.00
66021;BME280;52789;59.980;30.346;2022-12-19T14:36:55;102191.63;;;-1.08;100.00
66021;BME280;52789;59.980;30.346;2022-12-19T14:39:24;102188.84;;;-1.04;100.00
66021;BME280;52789;59.980;30.346;2022-12-19T14:42:00;102191.72;;;-0.86;100.00
66021;BME280;52789;59.980;30.346;2022-12-19T14:44:56;102189.13;;;-0.86;100.00
66021;BME280;52789;59.980;30.346;2022-12-19T14:47:36;102198.56;;;-0.82;100.00
66021;BME280;52789;59.980;30.346;2022-12-19T14:50:39;102208.22;;;-0.84;100.00
66021;BME280;52789;59.980;30.346;2022-12-19T14:53:16;102187.72;;;-0.97;100.00
66021;BME280;52789;59.980;30.346;2022-12-19T14:55:42;102187.59;;;-0.94;100.00
66021;BME280;52789;59.980;30.346;2022-12-19T14:58:17;102210.44;;;-0.74;100.00
66021;BME280;52789;59.980;30.346;2022-12-19T15:00:49;102201.63;;;-0.71;100.00
66021;BME280;52789;59.980;30.346;2022-12-19T15:03:30;102204.81;;;-0.63;100.00
66021;BME280;52789;59.980;30.346;2022-12-19T15:06:13;102209.84;;;-0.57;100.00
66021;BME280;52789;59.980;30.346;2022-12-19T15:08:40;102208.13;;;-0.58;100.00
66021;BME280;52789;59.980;30.346;2022-12-19T15:11:06;102203.00;;;-0.61;100.00
66021;BME280;52789;59.980;30.346;2022-12-19T15:13:57;102198.66;;;-0.62;100.00
66021;BME280;52789;59.980;30.346;2022-12-19T15:16:24;102210.16;;;-0.66;100.00
66021;BME280;52789;59.980;30.346;2022-12-19T15:18:54;102198.06;;;-0.69;100.00
66021;BME280;52789;59.980;30.346;2022-12-19T15:21:20;102191.28;;;-0.74;100.00
66021;BME280;52789;59.980;30.346;2022-12-19T15:23:45;102206.00;;;-0.72;100.00
66021;BME280;52789;59.980;30.346;2022-12-19T15:26:14;102196.50;;;-0.74;100.00
66021;BME280;52789;59.980;30.346;2022-12-19T15:28:47;102199.94;;;-0.72;100.00
66021;BME280;52789;59.980;30.346;2022-12-19T15:36:42;102178.88;;;-0.69;100.00
66021;BME280;52789;59.980;30.346;2022-12-19T15:39:07;102194.34;;;-0.63;100.00
66021;BME280;52789;59.980;30.346;2022-12-19T15:41:33;102193.56;;;-0.65;100.00
66021;BME280;52789;59.980;30.346;2022-12-19T15:44:06;102184.75;;;-0.63;100.00
66021;BME280;52789;59.980;30.346;2022-12-19T15:46:33;102197.66;;;-0.58;100.00
66021;BME280;52789;59.980;30.346;2022-12-19T15:48:58;102188.06;;;-0.57;100.00
66021;BME280;52789;59.980;30.346;2022-12-19T15:51:24;102182.97;;;-0.62;100.00
66021;BME280;52789;59.980;30.346;2022-12-19T15:53:49;102184.69;;;-0.61;100.00
66021;BME280;52789;59.980;30.346;2022-12-19T15:56:37;102184.47;;;-0.55;100.00
66021;BME280;52789;59.980;30.346;2022-12-19T15:59:09;102171.47;;;-0.58;100.00
66021;BME280;52789;59.980;30.346;2022-12-19T16:01:43;102178.16;;;-0.49;100.00
66021;BME280;52789;59.980;30.346;2022-12-19T16:04:10;102170.31;;;-0.49;100.00
66021;BME280;52789;59.980;30.346;2022-12-19T16:06:37;102173.66;;;-0.46;100.00
66021;BME280;52789;59.980;30.346;2022-12-19T16:09:20;102164.78;;;-0.42;100.00
66021;BME280;52789;59.980;30.346;2022-12-19T16:11:47;102163.81;;;-0.39;100.00
66021;BME280;52789;59.980;30.346;2022-12-19T16:14:13;102168.97;;;-0.38;100.00
66021;BME280;52789;59.980;30.346;2022-12-19T16:16:40;102152.38;;;-0.37;100.00
66021;BME280;52789;59.980;30.346;2022-12-19T16:21:46;102152.25;;;-0.34;100.00
66021;BME280;52789;59.980;30.346;2022-12-19T16:24:12;102141.91;;;-0.37;100.00
66021;BME280;52789;59.980;30.346;2022-12-19T16:26:38;102150.34;;;-0.30;100.00
66021;BME280;52789;59.980;30.346;2022-12-19T16:29:08;102145.97;;;-0.29;100.00
66021;BME280;52789;59.980;30.346;2022-12-19T16:31:41;102143.31;;;-0.28;100.00